createdAt,value
2022-12-31T00:03:47.979Z,8.52
2022-12-31T00:08:55.240Z,8.32
2022-12-31T00:13:59.431Z,7.96
2022-12-31T00:19:06.571Z,8.18
2022-12-31T00:24:13.174Z,8.18
2022-12-31T00:29:16.703Z,8.14
2022-12-31T00:34:20.853Z,8.08
2022-12-31T00:39:25.099Z,8.44
2022-12-31T00:44:29.137Z,8.50
2022-12-31T00:49:32.930Z,8.65
2022-12-31T00:54:36.858Z,8.70
2022-12-31T00:59:40.618Z,8.68
2022-12-31T01:04:45.021Z,8.94
2022-12-31T01:09:48.782Z,9.14
2022-12-31T01:14:52.675Z,8.83
2022-12-31T01:19:56.499Z,8.80
2022-12-31T01:25:00.245Z,8.89
2022-12-31T01:30:06.269Z,8.55
2022-12-31T01:35:10.164Z,9.07
2022-12-31T01:40:14.296Z,9.01
2022-12-31T01:45:18.181Z,8.70
2022-12-31T01:50:36.855Z,8.44
2022-12-31T01:55:46.840Z,8.73
2022-12-31T02:00:53.621Z,8.83
2022-12-31T02:06:07.723Z,8.81
2022-12-31T02:11:36.904Z,8.78
2022-12-31T02:17:14.629Z,8.99
2022-12-31T02:22:31.385Z,9.04
2022-12-31T02:28:19.897Z,8.87
2022-12-31T02:33:53.942Z,9.10
2022-12-31T02:38:59.556Z,9.02
2022-12-31T02:44:23.837Z,9.11
2022-12-31T02:50:14.382Z,9.09
2022-12-31T02:55:59.769Z,8.98
2022-12-31T03:01:22.593Z,8.92
2022-12-31T03:06:26.885Z,8.95
2022-12-31T03:11:49.433Z,8.81
2022-12-31T03:16:53.042Z,8.93
2022-12-31T03:22:15.633Z,8.83
2022-12-31T03:27:19.637Z,8.90
2022-12-31T03:32:23.563Z,9.07
2022-12-31T03:37:27.287Z,9.12
2022-12-31T03:42:33.784Z,8.79
2022-12-31T03:47:37.733Z,8.76
2022-12-31T03:52:42.259Z,8.64
2022-12-31T03:57:46.177Z,8.48
2022-12-31T04:02:51.251Z,8.71
2022-12-31T04:07:56.061Z,8.81
2022-12-31T04:13:02.660Z,9.09
2022-12-31T04:18:06.498Z,9.00
2022-12-31T04:23:10.629Z,8.96
2022-12-31T04:28:14.262Z,9.12
2022-12-31T04:33:17.967Z,9.12
2022-12-31T04:38:21.909Z,9.00
2022-12-31T04:43:25.831Z,9.08
2022-12-31T04:48:29.641Z,9.04
2022-12-31T04:53:33.663Z,8.88
2022-12-31T04:58:39.167Z,9.05
2022-12-31T05:03:42.964Z,9.09
2022-12-31T05:08:47.205Z,8.84
2022-12-31T05:13:50.956Z,8.52
2022-12-31T05:18:54.605Z,8.44
2022-12-31T05:23:58.372Z,8.31
2022-12-31T05:29:02.608Z,8.12
2022-12-31T05:34:06.326Z,8.22
2022-12-31T05:39:09.952Z,8.35
2022-12-31T05:44:14.087Z,8.36
2022-12-31T05:49:17.701Z,8.52
2022-12-31T05:54:21.859Z,8.64
2022-12-31T05:59:26.075Z,8.62
2022-12-31T06:04:29.910Z,8.76
2022-12-31T06:09:33.510Z,8.79
2022-12-31T06:14:43.753Z,8.96
2022-12-31T06:19:49.361Z,9.10
2022-12-31T06:24:53.010Z,9.14
2022-12-31T06:29:57.003Z,9.31
2022-12-31T06:35:00.623Z,9.42
2022-12-31T06:40:05.396Z,9.30
2022-12-31T06:45:10.120Z,9.36
2022-12-31T06:50:13.629Z,9.23
2022-12-31T06:55:19.067Z,9.14
2022-12-31T07:00:23.917Z,9.27
2022-12-31T07:05:59.078Z,9.25
2022-12-31T07:11:24.101Z,9.42
2022-12-31T07:16:45.014Z,9.53
2022-12-31T07:21:53.494Z,9.50
2022-12-31T07:27:28.367Z,9.52
2022-12-31T07:33:00.348Z,9.27
2022-12-31T07:38:31.797Z,9.45
2022-12-31T07:44:31.240Z,9.73
2022-12-31T07:49:39.093Z,9.86
2022-12-31T07:54:42.805Z,9.82
2022-12-31T07:59:58.675Z,9.93
2022-12-31T08:05:11.207Z,9.89
2022-12-31T08:10:28.961Z,10.17
2022-12-31T08:15:34.318Z,10.27
2022-12-31T08:21:35.316Z,10.00
2022-12-31T08:27:28.790Z,10.22
2022-12-31T08:32:59.242Z,10.29
2022-12-31T08:38:33.476Z,10.44
2022-12-31T08:44:06.883Z,10.52
2022-12-31T08:49:11.212Z,10.57
2022-12-31T08:54:15.620Z,10.55
2022-12-31T08:59:36.796Z,10.76
2022-12-31T09:05:07.908Z,10.67
2022-12-31T09:10:39.954Z,10.75
2022-12-31T09:16:14.247Z,10.88
2022-12-31T09:21:18.617Z,10.92
2022-12-31T09:27:03.945Z,11.10
2022-12-31T09:32:21.773Z,11.15
2022-12-31T09:38:17.999Z,11.09
2022-12-31T09:43:46.185Z,11.04
2022-12-31T09:49:48.117Z,11.17
2022-12-31T09:55:24.393Z,10.85
2022-12-31T10:00:59.472Z,10.88
2022-12-31T10:06:54.974Z,11.08
2022-12-31T10:12:41.211Z,11.00
2022-12-31T10:18:08.061Z,10.98
2022-12-31T10:23:54.811Z,11.06
2022-12-31T10:29:41.275Z,11.15
2022-12-31T10:35:13.123Z,11.21
2022-12-31T10:40:46.121Z,11.18
2022-12-31T10:46:29.600Z,11.25
2022-12-31T10:52:04.855Z,10.99
2022-12-31T10:57:45.207Z,11.14
2022-12-31T11:03:25.178Z,11.24
2022-12-31T11:09:48.597Z,11.06
2022-12-31T11:15:29.924Z,11.39
2022-12-31T11:20:57.887Z,11.40
2022-12-31T11:26:12.487Z,11.36
2022-12-31T11:31:52.614Z,11.30
2022-12-31T11:37:37.497Z,11.33
2022-12-31T11:42:44.884Z,11.40
2022-12-31T11:48:30.194Z,11.46
2022-12-31T11:54:01.830Z,11.50
2022-12-31T11:59:19.008Z,11.61
2022-12-31T12:04:25.856Z,11.62
2022-12-31T12:09:34.805Z,11.49
2022-12-31T12:14:43.328Z,11.62
2022-12-31T12:19:55.528Z,11.35
2022-12-31T12:25:17.843Z,11.48
2022-12-31T12:30:28.401Z,11.68
2022-12-31T12:35:36.146Z,11.67
2022-12-31T12:40:41.324Z,11.66
2022-12-31T12:45:52.220Z,11.83
2022-12-31T12:50:56.716Z,11.80
2022-12-31T12:56:17.312Z,11.98
2022-12-31T13:01:27.117Z,12.23
2022-12-31T13:06:49.780Z,12.48
2022-12-31T13:12:07.574Z,12.44
2022-12-31T13:17:49.804Z,12.81
2022-12-31T13:23:18.957Z,12.58
2022-12-31T13:28:26.444Z,12.48
2022-12-31T13:33:50.559Z,12.60
2022-12-31T13:39:03.600Z,13.22
2022-12-31T13:44:37.627Z,13.42
2022-12-31T13:49:53.542Z,13.59
2022-12-31T13:55:27.261Z,13.53
2022-12-31T14:00:40.537Z,13.70
2022-12-31T14:05:58.722Z,13.99
2022-12-31T14:11:47.148Z,14.24
2022-12-31T14:17:04.587Z,14.16
2022-12-31T14:22:22.708Z,13.64
2022-12-31T14:27:42.495Z,13.76
2022-12-31T14:33:21.824Z,13.99
2022-12-31T14:39:14.288Z,13.74
2022-12-31T14:45:08.592Z,13.70
2022-12-31T14:50:21.395Z,13.73
2022-12-31T14:55:34.751Z,13.98
2022-12-31T15:00:52.174Z,14.19
2022-12-31T15:06:25.409Z,14.22
2022-12-31T15:11:50.869Z,14.15
2022-12-31T15:17:08.039Z,14.13
2022-12-31T15:22:33.670Z,14.17
2022-12-31T15:27:42.892Z,14.38
2022-12-31T15:32:48.784Z,14.42
2022-12-31T15:38:37.489Z,14.49
2022-12-31T15:44:30.526Z,14.57
2022-12-31T15:49:45.796Z,14.72
2022-12-31T15:55:03.921Z,14.54
2022-12-31T16:00:27.334Z,15.02
2022-12-31T16:05:38.926Z,15.03
2022-12-31T16:10:53.366Z,14.92
2022-12-31T16:16:36.119Z,14.98
2022-12-31T16:21:49.173Z,15.16
2022-12-31T16:27:10.632Z,15.20
2022-12-31T16:32:20.624Z,15.35
2022-12-31T16:37:29.363Z,15.34
2022-12-31T16:42:44.471Z,15.23
2022-12-31T16:47:57.208Z,15.50
2022-12-31T16:53:17.794Z,15.36
2022-12-31T16:58:38.750Z,15.55
2022-12-31T17:03:58.892Z,15.62
2022-12-31T17:09:22.564Z,15.55
2022-12-31T17:14:33.362Z,15.37
2022-12-31T17:19:53.299Z,15.38
2022-12-31T17:25:19.134Z,16.04
2022-12-31T17:30:37.069Z,15.71
2022-12-31T17:35:49.959Z,15.50
2022-12-31T17:41:21.039Z,16.07
2022-12-31T17:46:38.745Z,16.53
2022-12-31T17:51:54.460Z,16.50
2022-12-31T17:57:02.640Z,16.15
2022-12-31T18:02:14.058Z,15.99
2022-12-31T18:07:19.431Z,16.11
2022-12-31T18:12:26.127Z,16.25
2022-12-31T18:17:31.087Z,16.52
2022-12-31T18:22:36.440Z,16.61
2022-12-31T18:27:44.037Z,16.57
2022-12-31T18:32:49.374Z,16.73
2022-12-31T18:37:53.279Z,16.51
2022-12-31T18:43:02.666Z,16.29
2022-12-31T18:48:12.083Z,16.58
2022-12-31T18:53:21.260Z,17.03
2022-12-31T18:58:25.168Z,17.23
2022-12-31T19:03:29.169Z,16.70
2022-12-31T19:08:34.049Z,16.31
2022-12-31T19:13:38.078Z,16.34
2022-12-31T19:18:42.907Z,16.06
2022-12-31T19:23:47.381Z,16.06
2022-12-31T19:28:52.524Z,15.94
2022-12-31T19:33:57.167Z,15.93
2022-12-31T19:39:01.193Z,15.88
2022-12-31T19:44:04.923Z,15.59
2022-12-31T19:49:12.935Z,15.48
2022-12-31T19:54:16.599Z,15.51
2022-12-31T19:59:20.625Z,15.30
2022-12-31T20:04:24.488Z,15.30
2022-12-31T20:09:28.350Z,15.35
2022-12-31T20:14:32.476Z,15.19
2022-12-31T20:19:36.614Z,15.07
2022-12-31T20:24:40.636Z,15.17
2022-12-31T20:29:44.913Z,15.06
2022-12-31T20:34:49.108Z,15.09
2022-12-31T20:39:52.808Z,14.92
2022-12-31T20:44:56.739Z,14.93
2022-12-31T20:50:11.391Z,15.17
2022-12-31T20:55:18.420Z,15.27
2022-12-31T21:00:23.005Z,15.27
2022-12-31T21:05:27.357Z,15.02
2022-12-31T21:10:31.375Z,15.14
2022-12-31T21:15:45.997Z,15.32
2022-12-31T21:20:53.082Z,15.14
2022-12-31T21:25:57.284Z,14.97
2022-12-31T21:31:06.022Z,14.96
2022-12-31T21:36:10.111Z,15.01
2022-12-31T21:41:34.807Z,15.20
2022-12-31T21:46:54.563Z,15.14
2022-12-31T21:52:23.976Z,14.93
2022-12-31T21:57:27.907Z,14.85
2022-12-31T22:03:04.441Z,14.95
2022-12-31T22:08:08.539Z,15.08
2022-12-31T22:13:13.832Z,14.94
2022-12-31T22:18:17.928Z,15.18
2022-12-31T22:23:22.622Z,15.17
2022-12-31T22:28:38.167Z,15.27
2022-12-31T22:33:45.267Z,15.46
2022-12-31T22:38:54.746Z,15.44
2022-12-31T22:44:04.006Z,15.62
2022-12-31T22:49:11.315Z,16.52
2022-12-31T22:54:15.801Z,16.93
2022-12-31T22:59:20.242Z,16.93
2022-12-31T23:04:24.974Z,17.45
2022-12-31T23:09:48.096Z,17.42
2022-12-31T23:15:10.764Z,16.97
2022-12-31T23:20:38.370Z,17.11
2022-12-31T23:25:51.928Z,17.76
2022-12-31T23:30:55.917Z,17.42
2022-12-31T23:36:07.604Z,17.66
2022-12-31T23:41:21.041Z,17.99
2022-12-31T23:46:25.113Z,17.91
2022-12-31T23:51:28.934Z,17.96
2022-12-31T23:56:32.972Z,18.00
